Главная страница
METAR-TAF:

METAR-TAF

Аэропорты :

Beaver Creek, Юкон, Канада

широта: 62-25N, долгота: 140-52W, высота над уровнем моря: 649 м

Текущие метеонаблюдения

Эта сводка был подготовлена 11 часа и 34 минут назад, в 23:00 UTC
Ветер 3 Узел от юго-юго-восточный
Температура -16°C
Влажность 84%
Давление 973 hPa
Видимость: 48.3 км
Рассеянная облачность на высоте 9000 фута
Рассеянная облачность на высоте 17000 фута

METAR: CYXQ 112300Z 16003KT 30SM BKN090 BKN170 M16/M18 A2872 RMK AC5AC2 CLIMAT -15.0/-20.1/0.0/LAST STFD OBS/NXT 121700Z SLP778

Время: 02:34 (10:34 UTC)


TAF: отсутствует

Метеонаблюдения и прогнозы для более 4000 аэропортов (сводки METAR и TAF).

Имеющиеся станции представлены на карте желтыми и красными точками.

Чтобы увидеть название станции, наведите на нее мышь.

Затем щелкните, чтобы увидеть метеонаблюдения и метеопрогнозы.

Управление картой: чтобы увеличить масштаб, щелкните зеленые кнопки с черным крестиком; чтобы уменьшить масштаб, щелкните зеленую кнопку с тире; для просмотра соседних карт щелкайте зеленые стрелки.


METAR-TAF: